Time;durP1;ratioP1;P1;durP2;ratioP2;P2;SDS_P1;SDS_P2;PMS_P1;PMS_P2;Temp;Humidity;BMP_temperature;BMP_pressure;BME280_temperature;BME280_humidity;BME280_pressure;Samples;Min_cycle;Max_cycle;Signal;HPM_P1;HPM_P2
2021/07/16 00:45:29;;;;;;;10.77;9.25;;;22.60;98.10;;;;;;5038464;28;20060;-72
2021/07/16 00:55:37;;;;;;;11.60;9.20;;;22.50;98.10;;;;;;5052996;28;20036;-70
2021/07/16 00:58:22;;;;;;;10.02;8.43;;;22.50;98.30;;;;;;5053106;28;20059;-71
2021/07/16 01:01:07;;;;;;;11.48;8.48;;;22.50;98.40;;;;;;5046573;28;20036;-71
2021/07/16 01:03:51;;;;;;;11.32;8.52;;;22.40;98.50;;;;;;5032946;28;20037;-71
2021/07/16 01:06:35;;;;;;;12.48;9.20;;;22.40;98.60;;;;;;5038012;28;20048;-71
2021/07/16 01:09:19;;;;;;;10.13;9.10;;;22.40;98.70;;;;;;5052973;28;20098;-71
2021/07/16 01:12:05;;;;;;;10.68;9.40;;;22.40;98.90;;;;;;5051890;28;20035;-71
2021/07/16 01:14:51;;;;;;;13.73;10.10;;;22.40;99.00;;;;;;5052865;28;20136;-71
2021/07/16 01:17:35;;;;;;;12.80;9.80;;;22.40;99.00;;;;;;5051036;28;20036;-71
2021/07/16 01:20:23;;;;;;;10.15;8.75;;;22.30;99.00;;;;;;5052725;28;20074;-71
2021/07/16 01:23:14;;;;;;;12.52;10.25;;;22.30;99.00;;;;;;5034333;28;20124;-72
2021/07/16 01:25:58;;;;;;;13.35;10.63;;;22.30;99.00;;;;;;5034402;28;20080;-71
2021/07/16 01:28:42;;;;;;;11.43;9.90;;;22.30;98.90;;;;;;5032624;28;20053;-72
2021/07/16 01:31:26;;;;;;;11.25;8.63;;;22.30;99.00;;;;;;5033225;28;20287;-72
2021/07/16 01:34:10;;;;;;;11.75;9.77;;;22.40;99.00;;;;;;5032850;28;20090;-73
2021/07/16 01:36:54;;;;;;;12.57;9.57;;;22.30;99.00;;;;;;5041984;28;20078;-72
2021/07/16 01:39:39;;;;;;;12.50;9.90;;;22.30;99.10;;;;;;5054283;28;20033;-72
2021/07/16 01:42:32;;;;;;;11.30;9.63;;;22.30;98.90;;;;;;5053596;28;20499;-72
2021/07/16 01:45:22;;;;;;;11.38;9.65;;;22.30;98.70;;;;;;4999096;28;1009668;-72
2021/07/16 01:48:17;;;;;;;11.18;9.52;;;22.30;98.90;;;;;;5045854;28;20041;-72
2021/07/16 01:51:00;;;;;;;11.60;9.65;;;22.20;99.00;;;;;;5050657;28;20087;-71
2021/07/16 01:53:45;;;;;;;10.13;8.95;;;22.10;99.20;;;;;;5039813;28;20068;-71
2021/07/16 01:56:30;;;;;;;11.40;10.20;;;22.10;99.40;;;;;;5033631;28;20060;-72
2021/07/16 01:59:15;;;;;;;10.80;9.10;;;22.10;99.30;;;;;;5050672;28;20166;-72
2021/07/16 02:01:59;;;;;;;10.43;9.13;;;22.10;99.30;;;;;;5039847;28;20040;-72
2021/07/16 02:04:43;;;;;;;12.18;8.85;;;22.10;99.20;;;;;;5053259;28;20056;-72
2021/07/16 02:07:27;;;;;;;10.20;9.05;;;22.10;99.30;;;;;;5038178;28;20263;-71
2021/07/16 02:10:11;;;;;;;14.10;9.25;;;22.10;99.30;;;;;;5053550;28;20083;-71
2021/07/16 02:12:56;;;;;;;12.70;9.77;;;22.10;99.30;;;;;;5052242;28;20063;-71
2021/07/16 02:15:43;;;;;;;11.80;9.40;;;22.10;99.30;;;;;;5052399;28;20067;-71
2021/07/16 02:18:26;;;;;;;11.50;9.25;;;22.10;99.30;;;;;;5042113;28;20040;-70
2021/07/16 02:21:11;;;;;;;11.63;9.18;;;22.10;99.40;;;;;;5032314;28;20043;-70
2021/07/16 02:23:54;;;;;;;11.65;9.07;;;22.00;99.40;;;;;;5047314;28;20408;-70
2021/07/16 02:26:39;;;;;;;11.32;8.20;;;22.00;99.50;;;;;;5052854;28;20101;-71
2021/07/16 02:29:23;;;;;;;10.93;8.65;;;22.00;99.50;;;;;;5034105;28;20051;-70
2021/07/16 02:32:07;;;;;;;13.30;8.93;;;22.00;99.40;;;;;;5032566;28;20182;-71
2021/07/16 02:34:51;;;;;;;11.18;8.85;;;22.00;99.30;;;;;;5032296;28;20459;-70
2021/07/16 02:37:35;;;;;;;9.50;8.02;;;22.00;99.40;;;;;;5033157;28;20103;-70
2021/07/16 02:40:20;;;;;;;11.77;8.93;;;22.00;99.50;;;;;;5032648;28;20101;-73
2021/07/16 02:43:05;;;;;;;10.98;8.90;;;21.90;99.60;;;;;;5035758;28;20040;-72
2021/07/16 02:45:50;;;;;;;9.57;7.95;;;21.90;99.40;;;;;;5031937;28;20632;-73
2021/07/16 02:48:34;;;;;;;;;;;21.90;99.50;;;;;;5044997;28;20495;-70
2021/07/16 02:51:18;;;;;;;10.25;8.43;;;21.90;99.20;;;;;;5052456;28;19912;-71
2021/07/16 02:54:03;;;;;;;10.63;8.65;;;21.80;99.40;;;;;;5051079;28;20043;-72
2021/07/16 02:56:49;;;;;;;9.75;8.30;;;21.80;99.40;;;;;;5050035;28;20389;-71
2021/07/16 02:59:35;;;;;;;10.60;8.63;;;21.80;99.40;;;;;;5051831;28;20068;-71
2021/07/16 03:02:21;;;;;;;9.98;8.32;;;21.80;99.40;;;;;;5049634;28;20035;-73
2021/07/16 03:05:09;;;;;;;12.95;8.48;;;21.70;99.50;;;;;;5033394;28;20025;-73
2021/07/16 03:07:59;;;;;;;12.05;8.90;;;21.70;99.60;;;;;;5038476;28;20109;-73
2021/07/16 03:10:46;;;;;;;13.15;9.73;;;21.70;99.80;;;;;;5051804;28;20029;-75
2021/07/16 03:13:32;;;;;;;11.77;8.70;;;21.70;99.80;;;;;;5038613;28;20025;-74
2021/07/16 03:16:18;;;;;;;9.65;8.18;;;21.70;99.80;;;;;;5032353;28;20040;-74
2021/07/16 03:19:04;;;;;;;9.57;8.48;;;21.70;99.80;;;;;;5046829;28;20033;-73
2021/07/16 03:21:50;;;;;;;10.45;8.48;;;21.70;99.90;;;;;;5050286;28;20095;-73
2021/07/16 03:24:36;;;;;;;10.52;8.00;;;21.70;99.90;;;;;;5051174;28;20036;-73
2021/07/16 03:27:21;;;;;;;10.10;8.27;;;21.80;99.90;;;;;;5050852;28;20029;-72
2021/07/16 03:30:17;;;;;;;13.32;8.65;;;21.80;99.70;;;;;;5036533;28;20083;-70
2021/07/16 03:33:02;;;;;;;;;;;21.80;99.80;;;;;;5044797;28;20056;-73
2021/07/16 03:35:48;;;;;;;11.20;8.18;;;21.80;99.50;;;;;;5031587;28;20258;-74
2021/07/16 03:38:36;;;;;;;10.07;8.25;;;21.80;99.70;;;;;;5043012;28;20025;-73
2021/07/16 03:41:22;;;;;;;11.95;8.35;;;21.80;99.80;;;;;;5048928;28;20029;-73
2021/07/16 03:44:08;;;;;;;12.48;9.13;;;21.80;99.90;;;;;;5043878;28;20036;-73
2021/07/16 03:46:54;;;;;;;11.57;8.88;;;21.90;99.90;;;;;;5049927;28;20124;-75
2021/07/16 03:49:40;;;;;;;8.43;7.50;;;21.90;99.90;;;;;;5031933;28;20025;-73
2021/07/16 03:52:26;;;;;;;11.48;8.25;;;21.90;99.90;;;;;;5032168;28;20028;-74
2021/07/16 03:55:13;;;;;;;12.13;8.07;;;21.90;99.90;;;;;;5031176;28;20033;-74
2021/07/16 03:57:59;;;;;;;11.75;8.50;;;22.00;99.80;;;;;;5031488;28;20112;-73
2021/07/16 04:00:45;;;;;;;13.13;8.60;;;22.00;99.90;;;;;;5031543;28;20026;-74
2021/07/16 04:03:30;;;;;;;10.40;8.43;;;22.00;99.90;;;;;;5042865;28;20029;-73
2021/07/16 04:06:16;;;;;;;11.20;7.95;;;22.00;99.80;;;;;;5051037;28;20117;-74
2021/07/16 04:09:26;;;;;;;11.00;7.80;;;22.10;99.70;;;;;;5034378;28;20025;-74
2021/07/16 04:12:14;;;;;;;10.55;8.45;;;22.10;99.90;;;;;;5042215;28;20407;-74
2021/07/16 04:15:00;;;;;;;10.02;8.32;;;22.10;99.90;;;;;;5049468;28;20028;-74
2021/07/16 04:17:46;;;;;;;11.13;8.70;;;22.10;99.80;;;;;;5043524;28;20044;-74
2021/07/16 04:20:34;;;;;;;9.90;8.52;;;22.10;99.90;;;;;;5029130;28;20068;-74
2021/07/16 04:23:19;;;;;;;9.30;8.30;;;22.20;99.80;;;;;;5040395;28;20430;-74
2021/07/16 04:26:05;;;;;;;12.70;9.02;;;22.20;99.70;;;;;;5048046;28;20032;-73
2021/07/16 04:28:51;;;;;;;9.00;7.78;;;22.30;99.60;;;;;;5048810;28;20036;-74
2021/07/16 04:31:37;;;;;;;10.75;8.25;;;22.30;99.70;;;;;;5050422;28;20026;-74
2021/07/16 04:34:23;;;;;;;9.57;8.27;;;22.40;99.70;;;;;;5032519;28;20043;-74
2021/07/16 04:37:09;;;;;;;12.93;8.80;;;22.40;99.80;;;;;;5038466;28;20049;-74
2021/07/16 04:39:56;;;;;;;12.85;9.88;;;22.50;99.70;;;;;;5016475;28;20060;-73
2021/07/16 04:42:42;;;;;;;11.93;9.75;;;22.50;99.50;;;;;;5034806;28;20040;-74
2021/07/16 04:45:28;;;;;;;11.55;10.35;;;22.50;99.50;;;;;;5029865;28;20053;-74
2021/07/16 04:48:14;;;;;;;14.07;10.40;;;22.50;99.50;;;;;;5036987;28;20060;-74
2021/07/16 04:50:39;;;;;;;13.00;9.65;;;22.60;99.60;;;;;;5050672;28;20064;-73
2021/07/16 04:53:23;;;;;;;10.87;9.23;;;22.60;99.50;;;;;;5050179;28;20203;-74
2021/07/16 04:56:07;;;;;;;12.63;10.18;;;22.70;99.50;;;;;;5034663;28;20404;-74
2021/07/16 04:58:52;;;;;;;14.53;10.27;;;22.70;99.40;;;;;;5050456;28;20036;-74
2021/07/16 05:01:36;;;;;;;11.75;9.40;;;22.70;99.30;;;;;;5054456;28;20333;-75
2021/07/16 05:04:19;;;;;;;12.68;9.38;;;22.70;99.40;;;;;;5037958;28;20519;-70
2021/07/16 05:07:04;;;;;;;11.55;10.35;;;22.80;99.30;;;;;;5046499;28;20032;-71
2021/07/16 05:09:48;;;;;;;13.63;10.10;;;22.80;99.10;;;;;;5046655;28;20411;-72
2021/07/16 05:12:34;;;;;;;12.10;10.27;;;22.90;99.00;;;;;;5046148;28;20071;-72
2021/07/16 05:15:18;;;;;;;8.98;7.30;;;22.90;98.90;;;;;;5042689;28;20031;-72
2021/07/16 05:18:03;;;;;;;9.53;8.10;;;22.90;98.40;;;;;;5047008;28;20040;-72
2021/07/16 05:20:47;;;;;;;;;;;23.00;98.40;;;;;;5052253;28;20378;-72
2021/07/16 05:23:32;;;;;;;10.63;8.85;;;23.00;98.50;;;;;;5048649;28;19954;-72
2021/07/16 05:26:16;;;;;;;9.55;8.40;;;23.00;98.50;;;;;;5052329;28;20050;-70
2021/07/16 05:29:00;;;;;;;10.63;7.87;;;23.10;98.40;;;;;;5041173;28;20047;-70
2021/07/16 05:31:44;;;;;;;9.68;8.23;;;23.10;98.30;;;;;;5050906;28;20294;-70
2021/07/16 05:34:29;;;;;;;10.80;8.23;;;23.10;98.00;;;;;;5045470;28;20503;-69
2021/07/16 05:37:15;;;;;;;9.75;8.43;;;23.20;97.90;;;;;;5042806;28;20052;-70
2021/07/16 05:40:01;;;;;;;11.27;9.48;;;23.30;97.70;;;;;;5048975;28;20032;-70
2021/07/16 05:42:47;;;;;;;10.82;8.95;;;23.30;97.70;;;;;;5045524;28;20489;-70
2021/07/16 05:45:35;;;;;;;10.18;8.35;;;23.30;97.70;;;;;;5044153;28;20046;-70
2021/07/16 05:48:21;;;;;;;10.07;7.97;;;23.40;97.80;;;;;;5040132;28;20070;-70
2021/07/16 05:51:08;;;;;;;9.82;7.82;;;23.50;97.70;;;;;;5051244;28;20158;-70
2021/07/16 05:53:53;;;;;;;9.68;7.82;;;23.50;97.80;;;;;;5044158;28;20402;-69
2021/07/16 05:56:41;;;;;;;10.77;8.80;;;23.60;97.60;;;;;;5051290;28;20077;-70
2021/07/16 05:59:27;;;;;;;10.45;7.70;;;23.60;97.40;;;;;;5039886;28;20051;-70
2021/07/16 06:02:12;;;;;;;11.30;8.18;;;23.60;97.50;;;;;;5048129;28;20032;-69
2021/07/16 06:04:58;;;;;;;11.73;7.75;;;23.70;97.40;;;;;;5039886;28;20025;-69
2021/07/16 06:07:44;;;;;;;12.35;8.98;;;23.70;97.50;;;;;;5038820;28;20104;-69
2021/07/16 06:10:31;;;;;;;10.38;8.38;;;23.80;97.10;;;;;;5040106;28;20033;-70
2021/07/16 06:13:17;;;;;;;12.25;9.25;;;23.80;97.10;;;;;;5038196;28;20388;-70
2021/07/16 06:16:03;;;;;;;10.18;9.13;;;23.90;97.10;;;;;;5048809;28;20037;-67
2021/07/16 06:18:49;;;;;;;10.60;8.65;;;23.90;96.90;;;;;;5030292;28;20033;-69
2021/07/16 06:21:35;;;;;;;10.90;8.75;;;23.90;96.80;;;;;;5043951;28;20025;-68
2021/07/16 06:24:21;;;;;;;12.43;8.80;;;24.00;97.00;;;;;;5041380;28;20052;-69
2021/07/16 06:27:07;;;;;;;12.40;8.82;;;24.00;96.90;;;;;;5040255;28;20037;-71
2021/07/16 06:29:51;;;;;;;12.35;9.35;;;24.10;96.60;;;;;;5041243;28;20032;-70
2021/07/16 06:32:36;;;;;;;;;;;24.10;96.60;;;;;;5045629;28;20079;-69
2021/07/16 06:35:20;;;;;;;10.35;8.20;;;24.20;96.70;;;;;;5050251;28;19915;-70
2021/07/16 06:38:04;;;;;;;9.68;8.23;;;24.20;96.60;;;;;;5045589;28;20040;-70
2021/07/16 06:40:48;;;;;;;8.93;8.02;;;24.30;96.30;;;;;;5049502;28;20040;-71
2021/07/16 06:43:32;;;;;;;10.40;8.45;;;24.20;96.20;;;;;;5043050;28;20043;-70
2021/07/16 06:46:16;;;;;;;11.50;8.57;;;24.30;96.00;;;;;;5042501;28;20090;-70
2021/07/16 06:49:00;;;;;;;8.82;7.72;;;24.30;96.10;;;;;;5042547;28;20098;-71
2021/07/16 06:51:44;;;;;;;9.27;7.85;;;24.30;95.90;;;;;;5043677;28;20167;-72
2021/07/16 06:54:29;;;;;;;8.57;7.70;;;24.40;95.90;;;;;;5047664;28;20047;-72
2021/07/16 06:57:15;;;;;;;8.10;7.30;;;24.40;95.60;;;;;;5045756;28;20045;-72
2021/07/16 07:00:02;;;;;;;8.25;7.35;;;24.40;95.50;;;;;;5047477;28;20095;-72
2021/07/16 07:02:48;;;;;;;13.48;7.65;;;24.50;95.30;;;;;;5037951;28;20044;-73
2021/07/16 07:05:34;;;;;;;10.48;7.60;;;24.50;95.40;;;;;;5048890;28;20036;-72
2021/07/16 07:08:20;;;;;;;10.18;8.25;;;24.60;95.40;;;;;;5041606;28;20037;-72
2021/07/16 07:11:06;;;;;;;10.07;7.18;;;24.60;95.30;;;;;;5041211;28;20142;-72
2021/07/16 07:13:52;;;;;;;8.90;7.13;;;24.70;95.30;;;;;;5039267;28;20047;-72
2021/07/16 07:16:38;;;;;;;9.15;7.78;;;24.80;95.00;;;;;;5052368;28;20069;-73
2021/07/16 07:19:24;;;;;;;10.93;8.50;;;24.90;95.00;;;;;;5050283;28;20436;-71
2021/07/16 07:22:09;;;;;;;11.75;8.82;;;24.90;94.80;;;;;;5016206;28;20043;-72
2021/07/16 07:24:55;;;;;;;9.77;7.63;;;24.90;94.40;;;;;;5045725;28;20040;-74
2021/07/16 07:27:41;;;;;;;11.30;7.35;;;25.00;94.50;;;;;;5045198;28;20511;-74
2021/07/16 07:30:27;;;;;;;8.98;7.97;;;25.00;94.50;;;;;;5047597;28;20023;-78
2021/07/16 07:33:13;;;;;;;12.77;8.32;;;25.10;94.50;;;;;;5037875;28;20416;-78
2021/07/16 07:35:59;;;;;;;12.70;8.27;;;25.20;94.80;;;;;;5044631;28;20052;-81
2021/07/16 07:38:45;;;;;;;11.32;8.18;;;25.30;94.90;;;;;;5045484;28;20032;-76
2021/07/16 07:41:31;;;;;;;11.73;8.10;;;25.40;94.70;;;;;;5036131;28;20028;-77
2021/07/16 07:44:17;;;;;;;12.07;7.85;;;25.50;94.50;;;;;;5047459;28;20085;-77
2021/07/16 07:47:03;;;;;;;13.35;8.70;;;25.50;94.60;;;;;;5047798;28;20420;-75
2021/07/16 07:49:49;;;;;;;8.65;7.72;;;25.60;94.20;;;;;;5039846;28;20036;-78
2021/07/16 07:52:35;;;;;;;10.70;7.22;;;25.60;93.70;;;;;;5043260;28;20052;-74
2021/07/16 07:55:24;;;;;;;10.90;7.82;;;25.70;93.40;;;;;;5036774;28;20416;-76
2021/07/16 07:58:10;;;;;;;8.43;7.53;;;25.80;93.60;;;;;;5041141;28;20108;-75
2021/07/16 08:00:56;;;;;;;8.55;6.70;;;25.80;93.70;;;;;;5036462;28;20056;-72
2021/07/16 08:03:42;;;;;;;10.50;7.03;;;25.90;93.40;;;;;;5048125;28;20029;-72
2021/07/16 08:06:28;;;;;;;8.90;7.57;;;25.90;93.00;;;;;;5037944;28;20036;-72
2021/07/16 08:09:14;;;;;;;8.70;7.30;;;25.90;93.70;;;;;;5030655;28;20024;-72
2021/07/16 08:12:02;;;;;;;9.65;7.00;;;26.00;93.00;;;;;;5039267;28;20176;-72
2021/07/16 08:14:48;;;;;;;10.10;7.00;;;26.10;92.50;;;;;;5042785;28;20373;-72
2021/07/16 08:17:34;;;;;;;11.10;7.45;;;26.10;92.50;;;;;;5047271;28;20048;-72
2021/07/16 08:20:20;;;;;;;9.50;7.78;;;26.20;92.40;;;;;;5043605;28;20025;-72
2021/07/16 08:23:06;;;;;;;10.02;6.63;;;26.30;92.30;;;;;;5041642;28;20111;-71
2021/07/16 08:25:52;;;;;;;9.68;6.90;;;26.40;92.70;;;;;;5045049;28;20127;-71
2021/07/16 08:28:38;;;;;;;9.93;7.57;;;26.50;92.80;;;;;;5047207;28;20124;-71
2021/07/16 08:31:24;;;;;;;10.82;7.75;;;26.60;92.60;;;;;;5051245;28;20092;-71
2021/07/16 08:34:11;;;;;;;8.70;7.07;;;26.70;92.50;;;;;;5051552;28;20500;-71
2021/07/16 08:36:57;;;;;;;11.05;7.05;;;26.80;91.50;;;;;;5055713;28;20060;-71
2021/07/16 08:39:45;;;;;;;9.27;6.55;;;26.80;91.60;;;;;;5053983;28;20063;-71
2021/07/16 08:42:31;;;;;;;7.95;7.07;;;26.90;91.60;;;;;;5052235;28;20291;-71
2021/07/16 08:45:17;;;;;;;10.93;7.05;;;27.00;91.30;;;;;;5053653;28;20127;-71
2021/07/16 08:48:04;;;;;;;9.45;7.32;;;27.00;91.20;;;;;;5048242;28;20025;-71
2021/07/16 08:50:46;;;;;;;10.10;7.57;;;27.10;91.30;;;;;;5053576;28;20488;-71
2021/07/16 08:53:33;;;;;;;9.45;6.72;;;27.20;91.50;;;;;;5052510;28;20195;-71
2021/07/16 08:56:17;;;;;;;9.90;7.45;;;27.20;91.00;;;;;;5053979;28;20404;-71
2021/07/16 08:59:05;;;;;;;10.52;6.90;;;27.20;90.70;;;;;;5039081;28;20491;-71
2021/07/16 09:01:50;;;;;;;11.05;7.47;;;27.30;90.60;;;;;;5034371;28;20132;-71
2021/07/16 09:04:40;;;;;;;8.43;7.55;;;27.40;90.80;;;;;;5053813;28;20522;-71
2021/07/16 09:07:24;;;;;;;10.20;7.78;;;27.40;90.70;;;;;;5053477;28;20121;-71
2021/07/16 09:10:09;;;;;;;9.90;8.18;;;27.50;91.00;;;;;;5054537;28;20028;-72
2021/07/16 09:13:00;;;;;;;11.63;8.85;;;27.60;91.00;;;;;;5052429;28;20044;-72
2021/07/16 09:15:50;;;;;;;9.63;7.88;;;27.60;91.20;;;;;;5054454;28;20408;-72
2021/07/16 09:18:34;;;;;;;13.48;7.60;;;27.60;90.10;;;;;;5053650;28;20364;-71
2021/07/16 09:21:18;;;;;;;;;;;27.60;90.30;;;;;;5053915;28;20036;-72
2021/07/16 09:24:03;;;;;;;9.02;7.45;;;27.70;90.60;;;;;;5038206;28;20003;-72
2021/07/16 09:26:47;;;;;;;10.43;7.22;;;27.80;91.00;;;;;;5046350;28;20116;-72
2021/07/16 09:29:33;;;;;;;10.90;7.65;;;27.90;90.50;;;;;;5053907;28;20116;-72
2021/07/16 09:32:17;;;;;;;11.52;7.57;;;28.00;91.20;;;;;;5052332;28;20047;-72
2021/07/16 09:35:01;;;;;;;9.93;8.00;;;28.10;90.90;;;;;;5033936;28;20488;-72
2021/07/16 09:37:50;;;;;;;11.57;8.90;;;28.30;90.50;;;;;;5038744;28;20067;-72
2021/07/16 09:40:40;;;;;;;10.07;7.60;;;28.30;90.10;;;;;;5053651;28;20086;-72
2021/07/16 09:43:26;;;;;;;12.50;8.80;;;28.30;89.70;;;;;;5043062;28;20032;-72
2021/07/16 09:46:10;;;;;;;10.90;8.32;;;28.40;88.40;;;;;;5033108;28;20120;-72
2021/07/16 09:49:09;;;;;;;12.95;8.20;;;28.40;89.70;;;;;;5047511;28;20036;-72
2021/07/16 09:52:09;;;;;;;13.20;9.43;;;28.40;89.70;;;;;;5053405;28;20048;-72
2021/07/16 09:55:20;;;;;;;12.10;8.32;;;28.40;87.60;;;;;;5041109;28;20089;-71
2021/07/16 09:58:04;;;;;;;13.25;8.50;;;28.40;88.70;;;;;;5041042;28;20131;-71
2021/07/16 10:00:51;;;;;;;8.80;7.65;;;28.50;87.60;;;;;;5053580;28;20155;-72
2021/07/16 10:03:37;;;;;;;10.88;8.38;;;28.60;87.30;;;;;;5041394;28;20180;-72
2021/07/16 10:06:22;;;;;;;13.25;9.07;;;28.70;85.60;;;;;;5033451;28;20090;-72
2021/07/16 10:09:06;;;;;;;11.05;8.85;;;28.80;87.10;;;;;;5049437;28;20094;-72
2021/07/16 10:11:56;;;;;;;12.70;9.05;;;28.90;86.20;;;;;;5052991;28;20047;-71
2021/07/16 10:14:40;;;;;;;11.88;10.18;;;29.00;86.20;;;;;;5053684;28;20098;-71
2021/07/16 10:17:25;;;;;;;10.05;8.63;;;29.00;86.50;;;;;;5051924;28;20055;-70
2021/07/16 10:20:16;;;;;;;12.75;9.35;;;29.10;86.50;;;;;;5050940;28;20064;-70
2021/07/16 10:23:00;;;;;;;11.02;9.70;;;29.10;87.40;;;;;;5039836;28;20102;-70
2021/07/16 10:25:48;;;;;;;10.85;9.63;;;29.20;86.50;;;;;;5053071;28;20480;-70
2021/07/16 10:28:40;;;;;;;15.75;9.52;;;29.30;84.80;;;;;;5042132;28;20391;-70
2021/07/16 10:31:34;;;;;;;13.00;9.88;;;29.40;84.90;;;;;;5041724;28;20120;-70
2021/07/16 10:34:18;;;;;;;12.13;8.70;;;29.60;83.60;;;;;;5046893;28;20039;-69
2021/07/16 10:37:13;;;;;;;11.32;8.00;;;29.60;82.80;;;;;;5047179;28;20048;-69
2021/07/16 10:39:56;;;;;;;9.40;7.47;;;29.60;81.20;;;;;;5040414;28;20094;-69
2021/07/16 10:42:44;;;;;;;9.23;6.75;;;29.60;79.60;;;;;;5049667;28;20036;-69
2021/07/16 10:45:35;;;;;;;8.77;7.35;;;29.60;79.70;;;;;;5052189;28;20055;-69
2021/07/16 10:48:29;;;;;;;11.55;7.85;;;29.60;79.50;;;;;;5050674;28;20039;-69
2021/07/16 10:51:23;;;;;;;10.73;7.40;;;29.60;78.10;;;;;;5051373;28;20122;-69
2021/07/16 10:54:10;;;;;;;11.05;7.72;;;29.70;78.60;;;;;;5042757;28;20179;-69
2021/07/16 10:57:12;;;;;;;12.32;8.43;;;29.70;81.20;;;;;;5048002;28;20087;-69
2021/07/16 10:59:58;;;;;;;9.90;7.28;;;29.90;81.60;;;;;;5045389;28;20024;-68
2021/07/16 11:02:46;;;;;;;11.27;7.32;;;30.00;77.80;;;;;;5036746;28;20025;-68
2021/07/16 11:05:31;;;;;;;11.27;7.18;;;30.10;78.90;;;;;;5051190;28;20032;-70
2021/07/16 11:08:27;;;;;;;8.90;7.20;;;30.10;78.50;;;;;;5040754;28;20036;-70
2021/07/16 11:11:19;;;;;;;10.95;6.63;;;30.20;79.60;;;;;;5050159;28;20021;-70
2021/07/16 11:14:06;;;;;;;11.35;8.40;;;30.30;78.60;;;;;;5049352;28;20370;-71
2021/07/16 11:17:01;;;;;;;8.25;7.40;;;30.40;76.40;;;;;;5035391;28;20033;-70
2021/07/16 11:20:10;;;;;;;9.98;6.97;;;30.60;75.90;;;;;;5046730;28;20029;-71
2021/07/16 11:22:58;;;;;;;11.68;6.88;;;30.70;74.50;;;;;;5046354;28;20017;-70
2021/07/16 11:25:44;;;;;;;10.07;6.65;;;30.80;73.30;;;;;;5050049;28;20041;-70
2021/07/16 11:28:29;;;;;;;8.50;6.63;;;30.90;72.40;;;;;;5051718;28;20025;-70
2021/07/16 11:31:18;;;;;;;9.48;6.43;;;30.90;71.40;;;;;;5036919;28;20028;-71
2021/07/16 11:34:06;;;;;;;9.60;7.35;;;31.00;71.70;;;;;;5050160;28;20021;-71
2021/07/16 11:36:53;;;;;;;11.68;6.50;;;31.00;71.80;;;;;;5037692;28;20037;-71
2021/07/16 11:39:39;;;;;;;9.75;6.45;;;31.00;72.30;;;;;;5049315;28;20079;-71
2021/07/16 11:42:25;;;;;;;7.95;6.57;;;31.00;72.80;;;;;;5051801;28;20029;-71
2021/07/16 11:45:18;;;;;;;10.07;6.60;;;31.00;71.40;;;;;;5050611;28;20060;-71
2021/07/16 11:48:17;;;;;;;7.43;6.30;;;31.10;71.00;;;;;;5048568;28;20033;-71
2021/07/16 11:51:06;;;;;;;8.35;6.32;;;31.10;71.20;;;;;;5035897;28;20032;-71
2021/07/16 11:53:52;;;;;;;9.65;5.80;;;31.10;68.80;;;;;;5049687;28;20481;-73
2021/07/16 11:56:38;;;;;;;8.98;5.80;;;31.20;67.00;;;;;;5049966;28;20567;-71
2021/07/16 11:59:26;;;;;;;7.78;5.20;;;31.20;66.70;;;;;;5037123;28;20024;-70
2021/07/16 12:02:19;;;;;;;6.45;5.43;;;31.20;65.10;;;;;;5045022;28;20086;-70
2021/07/16 12:05:06;;;;;;;7.50;5.60;;;31.30;66.10;;;;;;5049446;28;20022;-69
2021/07/16 12:07:52;;;;;;;10.85;5.90;;;31.40;66.60;;;;;;5047021;28;20048;-70
2021/07/16 12:10:37;;;;;;;7.28;5.65;;;31.30;64.70;;;;;;5054493;28;20025;-70
2021/07/16 12:13:23;;;;;;;7.40;5.57;;;31.40;65.90;;;;;;5052116;28;20073;-70
2021/07/16 12:16:13;;;;;;;6.10;4.80;;;31.30;65.70;;;;;;5053199;28;20037;-70
2021/07/16 12:18:59;;;;;;;7.38;5.38;;;31.20;65.10;;;;;;5053954;28;20122;-70
2021/07/16 12:21:45;;;;;;;6.68;5.32;;;31.20;65.10;;;;;;5053334;28;20033;-70
2021/07/16 12:24:31;;;;;;;5.95;4.88;;;31.30;65.70;;;;;;5052896;28;20025;-70
2021/07/16 12:27:18;;;;;;;7.57;4.70;;;31.30;63.80;;;;;;5052692;28;20048;-69
2021/07/16 12:30:09;;;;;;;6.20;5.07;;;31.30;62.50;;;;;;5054341;28;20546;-69
2021/07/16 12:33:02;;;;;;;7.07;4.90;;;31.40;62.40;;;;;;5050684;28;20031;-70
2021/07/16 12:35:48;;;;;;;5.70;4.93;;;31.40;63.50;;;;;;5050157;28;20173;-70
2021/07/16 12:38:36;;;;;;;8.57;4.38;;;31.50;63.50;;;;;;5046449;28;20021;-70
2021/07/16 12:41:23;;;;;;;5.65;3.95;;;31.50;61.30;;;;;;5048674;28;20473;-70
2021/07/16 12:44:11;;;;;;;7.28;4.72;;;31.40;58.70;;;;;;5054199;28;20048;-70
2021/07/16 12:46:57;;;;;;;7.88;5.00;;;31.40;60.30;;;;;;5052517;28;20515;-70
2021/07/16 12:49:43;;;;;;;7.72;4.88;;;31.40;60.40;;;;;;5053658;28;20382;-70
2021/07/16 12:52:10;;;;;;;7.40;4.57;;;31.40;59.80;;;;;;5053369;28;20027;-70
2021/07/16 12:55:15;;;;;;;5.32;4.15;;;31.50;59.10;;;;;;5055282;28;20032;-70
2021/07/16 12:58:00;;;;;;;6.17;4.60;;;31.50;58.80;;;;;;5051848;28;20060;-70
2021/07/16 13:00:57;;;;;;;6.18;4.50;;;31.60;59.10;;;;;;5055951;28;20055;-70
2021/07/16 13:03:43;;;;;;;8.82;5.20;;;31.70;59.80;;;;;;5064879;28;20029;-70
2021/07/16 13:06:31;;;;;;;5.65;4.75;;;31.80;59.30;;;;;;5060637;28;20039;-70
2021/07/16 13:09:29;;;;;;;7.68;4.60;;;31.90;60.00;;;;;;5052814;28;20060;-71
2021/07/16 13:12:17;;;;;;;6.85;4.43;;;32.00;58.10;;;;;;5054571;28;20071;-70
2021/07/16 13:15:04;;;;;;;6.97;4.43;;;32.10;59.50;;;;;;5032518;28;20091;-70
2021/07/16 13:17:48;;;;;;;8.43;4.80;;;32.20;58.20;;;;;;5052851;28;20036;-70
2021/07/16 13:20:32;;;;;;;8.38;5.13;;;32.20;57.00;;;;;;5049215;28;20086;-70
2021/07/16 13:23:16;;;;;;;;;;;32.20;57.50;;;;;;5053993;28;20124;-70
2021/07/16 13:26:02;;;;;;;5.85;4.25;;;32.10;57.50;;;;;;5054191;28;19912;-70
2021/07/16 13:28:47;;;;;;;6.30;5.25;;;32.10;57.60;;;;;;5052981;28;20396;-70
2021/07/16 13:31:31;;;;;;;6.05;4.80;;;32.10;58.80;;;;;;5053998;28;20075;-70
2021/07/16 13:34:14;;;;;;;;;;;32.10;58.90;;;;;;5053898;28;20130;-70
2021/07/16 13:36:59;;;;;;;10.20;5.80;;;32.00;58.40;;;;;;5053772;28;20411;-70
2021/07/16 13:39:44;;;;;;;6.65;5.03;;;32.00;58.50;;;;;;5051605;28;20710;-69
2021/07/16 13:42:29;;;;;;;7.45;5.57;;;31.90;59.20;;;;;;5044980;28;20435;-69
2021/07/16 13:45:13;;;;;;;8.80;4.82;;;31.90;59.00;;;;;;5053612;28;20094;-69
2021/07/16 13:47:57;;;;;;;9.25;5.15;;;31.80;58.80;;;;;;5052921;28;20039;-69
2021/07/16 13:50:41;;;;;;;;;;;31.80;59.20;;;;;;5034252;28;20045;-69
2021/07/16 13:53:25;;;;;;;8.95;5.10;;;31.70;59.40;;;;;;5039053;28;20330;-70
2021/07/16 13:56:09;;;;;;;11.35;5.63;;;31.60;58.80;;;;;;5052108;28;20055;-70
2021/07/16 13:58:53;;;;;;;7.68;5.60;;;31.60;59.20;;;;;;5049648;28;20028;-70
2021/07/16 14:01:37;;;;;;;10.27;7.88;;;31.50;59.70;;;;;;5051599;28;20129;-70
2021/07/16 14:04:22;;;;;;;11.90;9.00;;;31.50;64.10;;;;;;5053011;28;20039;-70
2021/07/16 14:07:06;;;;;;;13.07;10.10;;;31.40;66.90;;;;;;5050633;28;20079;-70
2021/07/16 14:09:52;;;;;;;14.25;8.23;;;31.30;68.40;;;;;;5051251;28;20031;-70
2021/07/16 14:12:36;;;;;;;10.00;8.70;;;31.30;69.00;;;;;;5053132;28;20106;-70
2021/07/16 14:15:20;;;;;;;11.63;9.50;;;31.20;69.80;;;;;;5052820;28;20126;-70
2021/07/16 14:18:04;;;;;;;10.88;9.38;;;31.20;70.30;;;;;;5053271;28;20040;-70
2021/07/16 14:20:48;;;;;;;10.05;8.77;;;31.20;71.20;;;;;;5050816;28;20036;-70
2021/07/16 14:23:32;;;;;;;12.48;9.07;;;31.20;71.90;;;;;;5032865;28;20063;-70
2021/07/16 14:26:16;;;;;;;9.43;7.32;;;31.10;71.60;;;;;;5033372;28;20121;-70
2021/07/16 14:29:00;;;;;;;10.27;8.45;;;31.00;72.10;;;;;;5047739;28;20507;-70
2021/07/16 14:31:44;;;;;;;11.10;8.73;;;31.00;72.10;;;;;;5051252;28;20044;-70
2021/07/16 14:34:29;;;;;;;11.82;8.93;;;30.90;72.60;;;;;;5052498;28;20098;-69
2021/07/16 14:37:18;;;;;;;10.25;9.10;;;30.90;74.00;;;;;;5051220;28;20048;-65
2021/07/16 14:40:06;;;;;;;11.13;8.55;;;30.80;74.70;;;;;;5052839;28;20435;-65
2021/07/16 14:42:50;;;;;;;12.07;8.90;;;30.60;76.00;;;;;;5047501;28;20036;-65
2021/07/16 14:45:35;;;;;;;12.40;8.32;;;30.60;76.70;;;;;;5051650;28;20048;-65
2021/07/16 14:48:19;;;;;;;11.93;8.75;;;30.50;78.00;;;;;;5047834;28;20118;-64
2021/07/16 14:51:03;;;;;;;10.23;8.27;;;30.50;76.80;;;;;;5049913;28;20403;-64
2021/07/16 14:53:47;;;;;;;10.25;7.68;;;30.40;77.20;;;;;;5032297;28;20114;-64
2021/07/16 14:56:33;;;;;;;9.85;8.00;;;30.30;77.20;;;;;;5051509;28;20110;-65
2021/07/16 14:59:18;;;;;;;10.20;8.70;;;30.20;77.30;;;;;;5049768;28;20396;-64
2021/07/16 15:02:04;;;;;;;9.27;7.65;;;30.10;77.60;;;;;;5050682;28;20032;-65
2021/07/16 15:04:50;;;;;;;13.48;8.05;;;30.00;78.20;;;;;;5047653;28;20126;-65
2021/07/16 15:07:36;;;;;;;9.85;7.32;;;29.90;79.00;;;;;;5042291;28;20029;-65
2021/07/16 15:10:24;;;;;;;10.85;7.38;;;29.90;79.60;;;;;;5047474;28;20037;-65
2021/07/16 15:13:10;;;;;;;10.85;7.15;;;29.80;79.70;;;;;;5039020;28;20420;-65